Terminal Aerodrome Forecast
Issued by NWS

Current Version | Previous Version | Text Only | Print | Product List | Glossary On
Versions: 1 2 3 4 5 6 7 8 9 10 11 12 13 14 15 16 17 18 19 20 21 22 23 24 25 26 27 28 29 30 31 32 33 34 35 36 37 38
000
FTUS43 KLSX 301738
TAFUIN
TAF
KUIN 301738Z 3018/0118 13015G23KT P6SM OVC008
     FM302000 15012G20KT P6SM BKN015
     FM010000 05006KT P6SM BKN020
     FM010800 31006KT 3SM BR OVC005
     FM011500 35005KT P6SM OVC007=

USA.gov is the U.S. government's official web portal to all federal, state and local government web resources and services.